sensor_id;sensor_type;location;lat;lon;timestamp;pressure;altitude;pressure_sealevel;temperature;humidity
83411;BME280;73340;53.132;8.174;2024-03-23T00:53:11;100790.59;;;7.18;92.56
83411;BME280;73340;53.132;8.174;2024-03-23T00:55:36;100781.78;;;7.22;92.73
83411;BME280;73340;53.132;8.174;2024-03-23T00:58:01;100743.59;;;7.09;92.38
83411;BME280;73340;53.132;8.174;2024-03-23T01:00:27;100769.56;;;7.23;92.76
83411;BME280;73340;53.132;8.174;2024-03-23T01:02:52;100766.88;;;7.26;92.62
83411;BME280;73340;53.132;8.174;2024-03-23T01:05:18;100750.41;;;7.19;92.44
83411;BME280;73340;53.132;8.174;2024-03-23T01:07:43;100764.34;;;7.21;92.63
83411;BME280;73340;53.132;8.174;2024-03-23T01:10:09;100766.16;;;7.18;92.94
83411;BME280;73340;53.132;8.174;2024-03-23T01:12:34;100760.88;;;7.19;92.72
83411;BME280;73340;53.132;8.174;2024-03-23T01:14:59;100759.13;;;7.21;92.74
83411;BME280;73340;53.132;8.174;2024-03-23T01:17:25;100750.59;;;7.10;92.55
83411;BME280;73340;53.132;8.174;2024-03-23T01:19:50;100725.41;;;7.02;92.95
83411;BME280;73340;53.132;8.174;2024-03-23T01:22:15;100745.16;;;7.19;93.31
83411;BME280;73340;53.132;8.174;2024-03-23T01:24:41;100734.97;;;7.04;92.84
83411;BME280;73340;53.132;8.174;2024-03-23T01:27:06;100750.47;;;7.16;92.97
83411;BME280;73340;53.132;8.174;2024-03-23T01:29:31;100746.03;;;7.20;93.03
83411;BME280;73340;53.132;8.174;2024-03-23T01:31:57;100742.53;;;7.21;92.97
83411;BME280;73340;53.132;8.174;2024-03-23T01:34:22;100736.50;;;7.16;92.80
83411;BME280;73340;53.132;8.174;2024-03-23T01:36:49;100736.56;;;7.13;93.04
83411;BME280;73340;53.132;8.174;2024-03-23T01:39:15;100730.44;;;7.12;92.87
83411;BME280;73340;53.132;8.174;2024-03-23T01:41:40;100719.16;;;7.10;92.71
83411;BME280;73340;53.132;8.174;2024-03-23T01:44:08;100721.00;;;7.05;92.73
83411;BME280;73340;53.132;8.174;2024-03-23T01:46:35;100688.00;;;6.94;92.58
83411;BME280;73340;53.132;8.174;2024-03-23T01:49:01;100727.94;;;7.06;92.59
83411;BME280;73340;53.132;8.174;2024-03-23T01:51:27;100714.97;;;6.99;93.05
83411;BME280;73340;53.132;8.174;2024-03-23T01:53:54;100715.75;;;7.04;92.55
83411;BME280;73340;53.132;8.174;2024-03-23T01:56:20;100719.25;;;7.04;92.58
83411;BME280;73340;53.132;8.174;2024-03-23T01:58:46;100717.47;;;7.06;92.45
83411;BME280;73340;53.132;8.174;2024-03-23T02:01:11;100694.97;;;6.96;92.71
83411;BME280;73340;53.132;8.174;2024-03-23T02:03:37;100699.94;;;7.11;93.29
83411;BME280;73340;53.132;8.174;2024-03-23T02:06:02;100709.69;;;7.03;92.46
83411;BME280;73340;53.132;8.174;2024-03-23T02:08:28;100669.06;;;6.81;93.04
83411;BME280;73340;53.132;8.174;2024-03-23T02:10:55;100688.06;;;6.91;92.97
83411;BME280;73340;53.132;8.174;2024-03-23T02:13:20;100678.63;;;6.84;93.07
83411;BME280;73340;53.132;8.174;2024-03-23T02:15:46;100703.78;;;6.91;93.57
83411;BME280;73340;53.132;8.174;2024-03-23T02:18:11;100694.19;;;6.91;93.45
83411;BME280;73340;53.132;8.174;2024-03-23T02:20:37;100604.44;;;6.34;93.27
83411;BME280;73340;53.132;8.174;2024-03-23T02:23:13;100684.75;;;6.81;93.29
83411;BME280;73340;53.132;8.174;2024-03-23T02:25:38;100687.31;;;6.84;93.33
83411;BME280;73340;53.132;8.174;2024-03-23T02:28:04;100677.78;;;6.82;93.75
83411;BME280;73340;53.132;8.174;2024-03-23T02:30:29;100672.56;;;6.80;93.55
83411;BME280;73340;53.132;8.174;2024-03-23T02:32:55;100667.28;;;6.83;93.37
83411;BME280;73340;53.132;8.174;2024-03-23T02:35:20;100665.56;;;6.81;93.14
83411;BME280;73340;53.132;8.174;2024-03-23T02:37:46;100665.50;;;6.85;93.39
83411;BME280;73340;53.132;8.174;2024-03-23T02:40:13;100662.84;;;6.88;93.35
83411;BME280;73340;53.132;8.174;2024-03-23T02:42:38;100654.97;;;6.88;93.41
83411;BME280;73340;53.132;8.174;2024-03-23T02:45:04;100655.88;;;6.86;93.38
83411;BME280;73340;53.132;8.174;2024-03-23T02:47:30;100655.13;;;6.79;93.44
83411;BME280;73340;53.132;8.174;2024-03-23T02:49:55;100649.91;;;6.78;93.71
83411;BME280;73340;53.132;8.174;2024-03-23T02:52:21;100644.81;;;6.72;93.68
83411;BME280;73340;53.132;8.174;2024-03-23T02:54:46;100644.78;;;6.73;93.84
83411;BME280;73340;53.132;8.174;2024-03-23T02:57:11;100639.53;;;6.73;94.47
83411;BME280;73340;53.132;8.174;2024-03-23T02:59:37;100641.31;;;6.71;93.68
83411;BME280;73340;53.132;8.174;2024-03-23T03:02:02;100637.81;;;6.71;93.91
83411;BME280;73340;53.132;8.174;2024-03-23T03:04:29;100629.13;;;6.70;93.87
83411;BME280;73340;53.132;8.174;2024-03-23T03:06:55;100625.75;;;6.62;94.05
83411;BME280;73340;53.132;8.174;2024-03-23T03:09:20;100624.94;;;6.60;94.05
83411;BME280;73340;53.132;8.174;2024-03-23T03:11:46;100617.94;;;6.61;94.14
83411;BME280;73340;53.132;8.174;2024-03-23T03:14:11;100629.28;;;6.61;93.96
83411;BME280;73340;53.132;8.174;2024-03-23T03:16:37;100624.97;;;6.59;93.91
83411;BME280;73340;53.132;8.174;2024-03-23T03:19:02;100618.09;;;6.53;94.15
83411;BME280;73340;53.132;8.174;2024-03-23T03:21:28;100619.91;;;6.48;94.06
83411;BME280;73340;53.132;8.174;2024-03-23T03:23:54;100579.25;;;6.29;93.88
83411;BME280;73340;53.132;8.174;2024-03-23T03:26:21;100594.94;;;6.29;94.03
83411;BME280;73340;53.132;8.174;2024-03-23T03:28:47;100607.75;;;6.44;94.69
83411;BME280;73340;53.132;8.174;2024-03-23T03:31:15;100568.91;;;6.23;94.62
83411;BME280;73340;53.132;8.174;2024-03-23T03:33:40;100613.09;;;6.39;94.35
83411;BME280;73340;53.132;8.174;2024-03-23T03:36:06;100613.13;;;6.36;94.39
83411;BME280;73340;53.132;8.174;2024-03-23T03:38:31;100595.72;;;6.34;94.90
83411;BME280;73340;53.132;8.174;2024-03-23T03:40:56;100600.09;;;6.35;94.93
83411;BME280;73340;53.132;8.174;2024-03-23T03:43:24;100603.56;;;6.34;94.66
83411;BME280;73340;53.132;8.174;2024-03-23T03:45:57;100589.78;;;6.26;94.79
83411;BME280;73340;53.132;8.174;2024-03-23T03:48:23;100588.13;;;6.22;94.88
83411;BME280;73340;53.132;8.174;2024-03-23T03:50:49;100583.00;;;6.14;95.24
83411;BME280;73340;53.132;8.174;2024-03-23T03:53:15;100529.41;;;5.88;95.27
83411;BME280;73340;53.132;8.174;2024-03-23T03:55:40;100586.41;;;6.18;95.36
83411;BME280;73340;53.132;8.174;2024-03-23T03:58:06;100575.19;;;6.13;95.29
83411;BME280;73340;53.132;8.174;2024-03-23T04:00:31;100598.50;;;6.25;95.00
83411;BME280;73340;53.132;8.174;2024-03-23T04:02:57;100570.91;;;6.06;94.94
83411;BME280;73340;53.132;8.174;2024-03-23T04:05:22;100583.06;;;6.10;94.96
83411;BME280;73340;53.132;8.174;2024-03-23T04:07:48;100588.34;;;6.07;94.93
83411;BME280;73340;53.132;8.174;2024-03-23T04:10:13;100586.41;;;6.18;94.73
83411;BME280;73340;53.132;8.174;2024-03-23T04:12:40;100584.13;;;5.98;95.09
83411;BME280;73340;53.132;8.174;2024-03-23T04:15:06;100568.47;;;5.97;94.74
83411;BME280;73340;53.132;8.174;2024-03-23T04:17:31;100575.34;;;6.01;95.33
83411;BME280;73340;53.132;8.174;2024-03-23T04:19:58;100587.59;;;5.97;94.99
83411;BME280;73340;53.132;8.174;2024-03-23T04:22:23;100590.31;;;5.93;95.23
83411;BME280;73340;53.132;8.174;2024-03-23T04:24:55;100581.63;;;5.91;95.25
83411;BME280;73340;53.132;8.174;2024-03-23T04:27:22;100585.03;;;5.96;95.38
83411;BME280;73340;53.132;8.174;2024-03-23T04:29:48;100584.22;;;5.91;95.08
83411;BME280;73340;53.132;8.174;2024-03-23T04:32:14;100579.06;;;5.86;95.68
83411;BME280;73340;53.132;8.174;2024-03-23T04:34:39;100577.38;;;5.85;95.20
83411;BME280;73340;53.132;8.174;2024-03-23T04:37:05;100578.25;;;5.81;95.62
83411;BME280;73340;53.132;8.174;2024-03-23T04:39:30;100580.00;;;5.79;95.83
83411;BME280;73340;53.132;8.174;2024-03-23T04:41:55;100580.91;;;5.78;95.87
83411;BME280;73340;53.132;8.174;2024-03-23T04:44:20;100573.06;;;5.80;95.95
83411;BME280;73340;53.132;8.174;2024-03-23T04:46:46;100574.91;;;5.72;95.34
83411;BME280;73340;53.132;8.174;2024-03-23T04:49:11;100574.03;;;5.71;95.71
83411;BME280;73340;53.132;8.174;2024-03-23T04:51:37;100560.97;;;5.73;95.48
83411;BME280;73340;53.132;8.174;2024-03-23T04:54:03;100563.69;;;5.65;95.70
83411;BME280;73340;53.132;8.174;2024-03-23T04:56:29;100553.25;;;5.65;96.07
83411;BME280;73340;53.132;8.174;2024-03-23T04:58:55;100555.88;;;5.64;96.27
83411;BME280;73340;53.132;8.174;2024-03-23T05:01:26;100554.13;;;5.63;95.65
83411;BME280;73340;53.132;8.174;2024-03-23T05:03:51;100559.41;;;5.60;96.36
83411;BME280;73340;53.132;8.174;2024-03-23T05:06:16;100546.28;;;5.64;95.71
83411;BME280;73340;53.132;8.174;2024-03-23T05:08:42;100554.19;;;5.60;95.74
83411;BME280;73340;53.132;8.174;2024-03-23T05:11:07;100552.50;;;5.56;95.76
83411;BME280;73340;53.132;8.174;2024-03-23T05:13:32;100455.81;;;4.99;96.00
83411;BME280;73340;53.132;8.174;2024-03-23T05:15:58;100545.59;;;5.52;96.53
83411;BME280;73340;53.132;8.174;2024-03-23T05:18:24;100465.31;;;5.06;96.17
83411;BME280;73340;53.132;8.174;2024-03-23T05:20:55;100544.69;;;5.54;95.75
83411;BME280;73340;53.132;8.174;2024-03-23T05:23:21;100536.97;;;5.47;95.83
83411;BME280;73340;53.132;8.174;2024-03-23T05:25:46;100546.50;;;5.49;96.46
83411;BME280;73340;53.132;8.174;2024-03-23T05:28:12;100542.19;;;5.47;96.39
83411;BME280;73340;53.132;8.174;2024-03-23T05:30:38;100545.66;;;5.46;96.38
83411;BME280;73340;53.132;8.174;2024-03-23T05:33:03;100513.75;;;5.24;96.14
83411;BME280;73340;53.132;8.174;2024-03-23T05:35:28;100544.84;;;5.44;95.81
83411;BME280;73340;53.132;8.174;2024-03-23T05:37:54;100538.81;;;5.39;96.08
83411;BME280;73340;53.132;8.174;2024-03-23T05:40:19;100539.69;;;5.38;96.10
83411;BME280;73340;53.132;8.174;2024-03-23T05:42:44;100537.97;;;5.37;95.61
83411;BME280;73340;53.132;8.174;2024-03-23T05:45:09;100533.66;;;5.36;96.23
83411;BME280;73340;53.132;8.174;2024-03-23T05:47:36;100533.66;;;5.36;96.31
83411;BME280;73340;53.132;8.174;2024-03-23T05:50:01;100526.69;;;5.35;95.54
83411;BME280;73340;53.132;8.174;2024-03-23T05:52:27;100531.91;;;5.35;95.55
83411;BME280;73340;53.132;8.174;2024-03-23T05:54:53;100529.25;;;5.38;95.80
83411;BME280;73340;53.132;8.174;2024-03-23T05:57:18;100531.00;;;5.39;95.79
83411;BME280;73340;53.132;8.174;2024-03-23T05:59:44;100537.97;;;5.38;95.81
83411;BME280;73340;53.132;8.174;2024-03-23T06:02:09;100537.06;;;5.41;95.54
83411;BME280;73340;53.132;8.174;2024-03-23T06:04:35;100544.09;;;5.36;95.99
83411;BME280;73340;53.132;8.174;2024-03-23T06:07:01;100538.06;;;5.32;96.00
83411;BME280;73340;53.132;8.174;2024-03-23T06:09:26;100542.34;;;5.35;96.42
83411;BME280;73340;53.132;8.174;2024-03-23T06:11:51;100536.19;;;5.40;96.58
83411;BME280;73340;53.132;8.174;2024-03-23T06:14:17;100522.25;;;5.41;96.10
83411;BME280;73340;53.132;8.174;2024-03-23T06:16:42;100538.63;;;5.52;96.34
83411;BME280;73340;53.132;8.174;2024-03-23T06:19:07;100523.81;;;5.53;95.62
83411;BME280;73340;53.132;8.174;2024-03-23T06:21:33;100531.63;;;5.54;96.17
83411;BME280;73340;53.132;8.174;2024-03-23T06:23:58;100522.84;;;5.60;95.61
83411;BME280;73340;53.132;8.174;2024-03-23T06:26:24;100528.88;;;5.65;95.57
83411;BME280;73340;53.132;8.174;2024-03-23T06:28:49;100528.69;;;5.77;95.34
83411;BME280;73340;53.132;8.174;2024-03-23T06:31:14;100518.19;;;5.80;95.31
83411;BME280;73340;53.132;8.174;2024-03-23T06:33:40;100511.41;;;5.68;94.75
83411;BME280;73340;53.132;8.174;2024-03-23T06:36:09;100516.50;;;5.76;95.04
83411;BME280;73340;53.132;8.174;2024-03-23T06:38:35;100463.78;;;5.51;94.20
83411;BME280;73340;53.132;8.174;2024-03-23T06:41:06;100526.72;;;5.91;94.33
83411;BME280;73340;53.132;8.174;2024-03-23T06:43:32;100525.00;;;5.91;94.56
83411;BME280;73340;53.132;8.174;2024-03-23T06:45:57;100510.16;;;5.93;93.94
83411;BME280;73340;53.132;8.174;2024-03-23T06:48:23;100520.38;;;6.07;93.48
83411;BME280;73340;53.132;8.174;2024-03-23T06:50:49;100521.19;;;6.09;93.62
83411;BME280;73340;53.132;8.174;2024-03-23T06:53:14;100515.81;;;6.19;93.89
83411;BME280;73340;53.132;8.174;2024-03-23T06:55:40;100518.31;;;6.27;93.07
83411;BME280;73340;53.132;8.174;2024-03-23T06:58:06;100512.97;;;6.31;92.55
83411;BME280;73340;53.132;8.174;2024-03-23T07:00:31;100516.28;;;6.41;92.50
83411;BME280;73340;53.132;8.174;2024-03-23T07:03:00;100512.81;;;6.42;92.43
83411;BME280;73340;53.132;8.174;2024-03-23T07:05:25;100509.22;;;6.46;92.44
83411;BME280;73340;53.132;8.174;2024-03-23T07:07:50;100510.81;;;6.55;91.61
83411;BME280;73340;53.132;8.174;2024-03-23T07:10:16;100515.25;;;6.49;91.85
83411;BME280;73340;53.132;8.174;2024-03-23T07:12:41;100497.75;;;6.53;91.51
83411;BME280;73340;53.132;8.174;2024-03-23T07:15:07;100495.06;;;6.56;91.46
83411;BME280;73340;53.132;8.174;2024-03-23T07:17:33;100517.50;;;6.69;91.44
83411;BME280;73340;53.132;8.174;2024-03-23T07:20:00;100509.53;;;6.75;91.22
83411;BME280;73340;53.132;8.174;2024-03-23T07:22:27;100510.25;;;6.83;91.00
83411;BME280;73340;53.132;8.174;2024-03-23T07:24:52;100501.38;;;6.90;90.83
83411;BME280;73340;53.132;8.174;2024-03-23T07:27:17;100499.47;;;6.98;89.61
83411;BME280;73340;53.132;8.174;2024-03-23T07:29:43;100498.53;;;7.01;88.98
83411;BME280;73340;53.132;8.174;2024-03-23T07:32:08;100502.72;;;7.09;88.81
83411;BME280;73340;53.132;8.174;2024-03-23T07:34:33;100505.28;;;7.11;88.44
83411;BME280;73340;53.132;8.174;2024-03-23T07:36:59;100487.63;;;7.20;87.89
83411;BME280;73340;53.132;8.174;2024-03-23T07:39:25;100485.81;;;7.24;87.48
83411;BME280;73340;53.132;8.174;2024-03-23T07:41:52;100485.59;;;7.33;87.02
83411;BME280;73340;53.132;8.174;2024-03-23T07:44:18;100487.28;;;7.37;86.92
83411;BME280;73340;53.132;8.174;2024-03-23T07:46:43;100468.06;;;7.36;87.21
83411;BME280;73340;53.132;8.174;2024-03-23T07:49:08;100473.03;;;7.48;85.48
83411;BME280;73340;53.132;8.174;2024-03-23T07:51:34;100495.19;;;7.70;85.21
83411;BME280;73340;53.132;8.174;2024-03-23T07:54:00;100488.00;;;7.78;84.07
83411;BME280;73340;53.132;8.174;2024-03-23T07:56:25;100486.00;;;7.90;83.48
83411;BME280;73340;53.132;8.174;2024-03-23T07:58:50;100488.44;;;7.97;83.12
83411;BME280;73340;53.132;8.174;2024-03-23T08:01:17;100470.41;;;7.83;82.88
83411;BME280;73340;53.132;8.174;2024-03-23T08:03:45;100483.13;;;7.99;82.24
83411;BME280;73340;53.132;8.174;2024-03-23T08:06:15;100478.88;;;7.95;82.20
83411;BME280;73340;53.132;8.174;2024-03-23T08:08:42;100474.22;;;8.06;82.71
83411;BME280;73340;53.132;8.174;2024-03-23T08:11:08;100465.56;;;8.02;81.66
83411;BME280;73340;53.132;8.174;2024-03-23T08:13:34;100444.88;;;7.92;81.26
83411;BME280;73340;53.132;8.174;2024-03-23T08:16:01;100476.09;;;8.01;80.39
83411;BME280;73340;53.132;8.174;2024-03-23T08:18:27;100463.66;;;8.09;80.94
83411;BME280;73340;53.132;8.174;2024-03-23T08:20:59;100477.75;;;8.05;80.83
83411;BME280;73340;53.132;8.174;2024-03-23T08:23:25;100468.75;;;8.15;80.72
83411;BME280;73340;53.132;8.174;2024-03-23T08:25:52;100467.66;;;8.25;80.25
83411;BME280;73340;53.132;8.174;2024-03-23T08:28:17;100430.16;;;8.20;79.17
83411;BME280;73340;53.132;8.174;2024-03-23T08:30:43;100486.66;;;8.33;78.34
83411;BME280;73340;53.132;8.174;2024-03-23T08:33:08;100480.81;;;8.22;79.38
83411;BME280;73340;53.132;8.174;2024-03-23T08:35:33;100469.97;;;8.02;79.06
83411;BME280;73340;53.132;8.174;2024-03-23T08:38:00;100481.59;;;8.27;79.82
83411;BME280;73340;53.132;8.174;2024-03-23T08:40:25;100469.56;;;8.50;79.82
83411;BME280;73340;53.132;8.174;2024-03-23T08:42:50;100459.38;;;8.40;79.40
83411;BME280;73340;53.132;8.174;2024-03-23T08:45:16;100471.75;;;8.35;80.96
83411;BME280;73340;53.132;8.174;2024-03-23T08:47:41;100468.03;;;8.42;80.03
83411;BME280;73340;53.132;8.174;2024-03-23T08:50:07;100462.03;;;8.69;80.33
83411;BME280;73340;53.132;8.174;2024-03-23T08:52:32;100462.00;;;8.70;79.88
83411;BME280;73340;53.132;8.174;2024-03-23T08:54:58;100412.53;;;8.26;79.18
83411;BME280;73340;53.132;8.174;2024-03-23T08:57:23;100438.03;;;8.52;78.52
83411;BME280;73340;53.132;8.174;2024-03-23T08:59:49;100396.09;;;8.18;77.87
83411;BME280;73340;53.132;8.174;2024-03-23T09:02:15;100460.91;;;8.48;77.49
83411;BME280;73340;53.132;8.174;2024-03-23T09:04:40;100457.81;;;8.33;77.96
83411;BME280;73340;53.132;8.174;2024-03-23T09:07:05;100453.69;;;8.23;78.81
83411;BME280;73340;53.132;8.174;2024-03-23T09:09:31;100460.88;;;8.15;77.63
83411;BME280;73340;53.132;8.174;2024-03-23T09:11:56;100461.31;;;7.98;78.33
83411;BME280;73340;53.132;8.174;2024-03-23T09:14:22;100442.53;;;7.81;79.29
83411;BME280;73340;53.132;8.174;2024-03-23T09:16:49;100468.44;;;7.93;79.51
83411;BME280;73340;53.132;8.174;2024-03-23T09:19:16;100465.16;;;7.83;79.60
83411;BME280;73340;53.132;8.174;2024-03-23T09:21:42;100465.03;;;7.90;79.97
83411;BME280;73340;53.132;8.174;2024-03-23T09:24:07;100459.41;;;8.05;79.34
83411;BME280;73340;53.132;8.174;2024-03-23T09:26:32;100460.22;;;8.07;79.14
83411;BME280;73340;53.132;8.174;2024-03-23T09:28:58;100459.09;;;8.17;78.82
83411;BME280;73340;53.132;8.174;2024-03-23T09:31:23;100452.09;;;8.49;78.96
83411;BME280;73340;53.132;8.174;2024-03-23T09:33:48;100454.03;;;8.73;77.32
83411;BME280;73340;53.132;8.174;2024-03-23T09:36:14;100456.25;;;8.87;76.74
83411;BME280;73340;53.132;8.174;2024-03-23T09:38:41;100452.41;;;8.69;76.54
83411;BME280;73340;53.132;8.174;2024-03-23T09:41:07;100393.72;;;8.41;75.33
83411;BME280;73340;53.132;8.174;2024-03-23T09:43:34;100458.00;;;8.88;76.31
83411;BME280;73340;53.132;8.174;2024-03-23T09:45:59;100448.50;;;9.13;75.07
83411;BME280;73340;53.132;8.174;2024-03-23T09:48:25;100446.78;;;9.40;74.87
83411;BME280;73340;53.132;8.174;2024-03-23T09:50:50;100442.56;;;9.34;71.85
83411;BME280;73340;53.132;8.174;2024-03-23T09:53:16;100444.59;;;9.26;71.15
83411;BME280;73340;53.132;8.174;2024-03-23T09:55:43;100450.84;;;8.93;73.23
83411;BME280;73340;53.132;8.174;2024-03-23T09:58:12;100443.31;;;9.10;73.08
83411;BME280;73340;53.132;8.174;2024-03-23T10:00:38;100441.22;;;9.21;74.29
83411;BME280;73340;53.132;8.174;2024-03-23T10:03:04;100426.03;;;9.03;73.81
83411;BME280;73340;53.132;8.174;2024-03-23T10:05:32;100435.34;;;9.13;73.47
83411;BME280;73340;53.132;8.174;2024-03-23T10:08:00;100437.88;;;9.16;72.12
83411;BME280;73340;53.132;8.174;2024-03-23T10:10:26;100428.31;;;9.14;72.02
83411;BME280;73340;53.132;8.174;2024-03-23T10:12:51;100403.22;;;9.03;71.99
83411;BME280;73340;53.132;8.174;2024-03-23T10:15:25;100437.88;;;9.16;72.05
83411;BME280;73340;53.132;8.174;2024-03-23T10:17:51;100422.03;;;9.19;70.64
83411;BME280;73340;53.132;8.174;2024-03-23T10:20:23;100433.31;;;9.23;69.35
83411;BME280;73340;53.132;8.174;2024-03-23T10:22:49;100426.59;;;9.13;70.26
83411;BME280;73340;53.132;8.174;2024-03-23T10:25:17;100400.22;;;9.16;70.91
83411;BME280;73340;53.132;8.174;2024-03-23T10:27:42;100432.72;;;9.13;72.67
83411;BME280;73340;53.132;8.174;2024-03-23T10:30:09;100419.72;;;9.08;73.98
83411;BME280;73340;53.132;8.174;2024-03-23T10:32:34;100409.16;;;9.38;73.17
83411;BME280;73340;53.132;8.174;2024-03-23T10:35:19;100406.09;;;9.51;72.93
83411;BME280;73340;53.132;8.174;2024-03-23T10:37:47;100406.53;;;9.90;72.21
83411;BME280;73340;53.132;8.174;2024-03-23T10:40:14;100407.16;;;9.72;70.81
83411;BME280;73340;53.132;8.174;2024-03-23T10:42:40;100397.19;;;9.55;70.22
83411;BME280;73340;53.132;8.174;2024-03-23T10:45:05;100404.91;;;9.61;70.27
83411;BME280;73340;53.132;8.174;2024-03-23T10:47:35;100404.69;;;9.41;70.13
83411;BME280;73340;53.132;8.174;2024-03-23T10:50:01;100413.13;;;9.51;70.26
83411;BME280;73340;53.132;8.174;2024-03-23T10:52:27;100405.44;;;9.71;69.03
83411;BME280;73340;53.132;8.174;2024-03-23T10:54:52;100388.88;;;9.93;69.18
83411;BME280;73340;53.132;8.174;2024-03-23T10:57:21;100405.06;;;10.07;68.88
83411;BME280;73340;53.132;8.174;2024-03-23T10:59:48;100394.94;;;10.21;68.68
83411;BME280;73340;53.132;8.174;2024-03-23T11:02:20;100398.72;;;10.14;67.85
83411;BME280;73340;53.132;8.174;2024-03-23T11:04:46;100390.16;;;10.32;67.56
83411;BME280;73340;53.132;8.174;2024-03-23T11:09:55;100401.59;;;10.31;68.19
83411;BME280;73340;53.132;8.174;2024-03-23T11:15:04;100396.56;;;9.99;67.25
83411;BME280;73340;53.132;8.174;2024-03-23T11:17:30;100390.31;;;9.77;65.50
83411;BME280;73340;53.132;8.174;2024-03-23T11:20:13;100374.84;;;9.68;65.98
83411;BME280;73340;53.132;8.174;2024-03-23T11:27:45;100383.88;;;9.61;65.53
83411;BME280;73340;53.132;8.174;2024-03-23T11:30:17;100401.53;;;9.82;68.99
83411;BME280;73340;53.132;8.174;2024-03-23T11:32:47;100405.69;;;10.15;68.80
83411;BME280;73340;53.132;8.174;2024-03-23T11:35:28;100401.31;;;10.39;67.53
83411;BME280;73340;53.132;8.174;2024-03-23T11:40:45;100442.13;;;9.20;66.30
83411;BME280;73340;53.132;8.174;2024-03-23T11:43:18;100466.84;;;7.51;75.08
83411;BME280;73340;53.132;8.174;2024-03-23T11:48:17;100497.84;;;6.48;80.40
83411;BME280;73340;53.132;8.174;2024-03-23T11:50:44;100482.75;;;5.64;83.28
83411;BME280;73340;53.132;8.174;2024-03-23T11:55:46;100508.03;;;5.62;84.56
83411;BME280;73340;53.132;8.174;2024-03-23T11:58:12;100534.94;;;5.67;85.96
83411;BME280;73340;53.132;8.174;2024-03-23T12:00:38;100500.53;;;5.38;85.38
83411;BME280;73340;53.132;8.174;2024-03-23T12:03:03;100404.53;;;4.98;83.17
83411;BME280;73340;53.132;8.174;2024-03-23T12:05:29;100410.16;;;5.81;82.87
83411;BME280;73340;53.132;8.174;2024-03-23T12:07:55;100461.00;;;6.59;82.59
83411;BME280;73340;53.132;8.174;2024-03-23T12:10:21;100452.56;;;7.27;83.40
83411;BME280;73340;53.132;8.174;2024-03-23T12:12:46;100436.31;;;7.83;81.37
83411;BME280;73340;53.132;8.174;2024-03-23T12:15:22;100440.69;;;7.49;79.17
83411;BME280;73340;53.132;8.174;2024-03-23T12:17:48;100421.00;;;8.02;79.77
83411;BME280;73340;53.132;8.174;2024-03-23T12:20:13;100426.50;;;8.57;78.46
83411;BME280;73340;53.132;8.174;2024-03-23T12:22:38;100400.50;;;9.08;77.58
83411;BME280;73340;53.132;8.174;2024-03-23T12:25:04;100382.72;;;8.59;76.78
83411;BME280;73340;53.132;8.174;2024-03-23T12:27:29;100415.63;;;9.28;77.03
83411;BME280;73340;53.132;8.174;2024-03-23T12:29:54;100411.75;;;8.82;74.62
83411;BME280;73340;53.132;8.174;2024-03-23T12:32:20;100403.16;;;9.34;75.41
83411;BME280;73340;53.132;8.174;2024-03-23T12:34:45;100396.38;;;9.53;74.95
83411;BME280;73340;53.132;8.174;2024-03-23T12:37:12;100393.28;;;9.67;72.67
83411;BME280;73340;53.132;8.174;2024-03-23T12:39:37;100402.34;;;9.58;71.66
83411;BME280;73340;53.132;8.174;2024-03-23T12:42:03;100391.66;;;9.64;71.46
83411;BME280;73340;53.132;8.174;2024-03-23T12:44:29;100334.09;;;9.55;71.12
83411;BME280;73340;53.132;8.174;2024-03-23T12:46:54;100387.44;;;9.59;71.34
83411;BME280;73340;53.132;8.174;2024-03-23T12:49:20;100394.81;;;9.48;72.77
83411;BME280;73340;53.132;8.174;2024-03-23T12:51:54;100403.13;;;9.08;74.72
83411;BME280;73340;53.132;8.174;2024-03-23T12:54:21;100421.59;;;8.45;77.17
83411;BME280;73340;53.132;8.174;2024-03-23T12:56:46;100418.59;;;7.95;80.11
83411;BME280;73340;53.132;8.174;2024-03-23T12:59:11;100418.91;;;7.82;79.99
83411;BME280;73340;53.132;8.174;2024-03-23T13:01:38;100410.53;;;8.94;77.36
83411;BME280;73340;53.132;8.174;2024-03-23T13:04:03;100398.88;;;9.58;72.30
83411;BME280;73340;53.132;8.174;2024-03-23T13:06:29;100392.06;;;10.03;70.07
83411;BME280;73340;53.132;8.174;2024-03-23T13:08:59;100385.75;;;9.82;67.81
83411;BME280;73340;53.132;8.174;2024-03-23T13:11:24;100373.22;;;10.40;66.12
83411;BME280;73340;53.132;8.174;2024-03-23T13:13:50;100383.00;;;10.82;63.57
83411;BME280;73340;53.132;8.174;2024-03-23T13:16:16;100378.13;;;11.38;63.03
83411;BME280;73340;53.132;8.174;2024-03-23T13:18:41;100373.78;;;10.94;62.08
83411;BME280;73340;53.132;8.174;2024-03-23T13:21:07;100378.22;;;9.72;64.29
83411;BME280;73340;53.132;8.174;2024-03-23T13:23:32;100369.72;;;10.85;61.65
83411;BME280;73340;53.132;8.174;2024-03-23T13:25:59;100366.84;;;10.22;63.98
83411;BME280;73340;53.132;8.174;2024-03-23T13:28:24;100370.22;;;9.76;66.49
83411;BME280;73340;53.132;8.174;2024-03-23T13:30:53;100371.22;;;11.35;62.73
83411;BME280;73340;53.132;8.174;2024-03-23T13:33:19;100357.84;;;10.97;61.90
83411;BME280;73340;53.132;8.174;2024-03-23T13:35:55;100354.69;;;10.66;63.30
83411;BME280;73340;53.132;8.174;2024-03-23T13:38:21;100359.13;;;11.08;60.88
83411;BME280;73340;53.132;8.174;2024-03-23T13:40:52;100354.56;;;10.69;60.93
83411;BME280;73340;53.132;8.174;2024-03-23T13:43:17;100308.25;;;9.92;62.19
83411;BME280;73340;53.132;8.174;2024-03-23T13:45:42;100350.34;;;10.86;61.00
83411;BME280;73340;53.132;8.174;2024-03-23T13:48:08;100350.53;;;11.46;57.61
83411;BME280;73340;53.132;8.174;2024-03-23T13:50:33;100357.84;;;10.52;59.49
83411;BME280;73340;53.132;8.174;2024-03-23T13:52:59;100370.59;;;10.15;62.17
83411;BME280;73340;53.132;8.174;2024-03-23T13:55:24;100387.00;;;9.97;62.39
83411;BME280;73340;53.132;8.174;2024-03-23T13:57:49;100380.34;;;9.87;65.09
83411;BME280;73340;53.132;8.174;2024-03-23T14:00:16;100371.75;;;9.82;65.56
83411;BME280;73340;53.132;8.174;2024-03-23T14:02:43;100369.28;;;9.77;65.72
83411;BME280;73340;53.132;8.174;2024-03-23T14:05:08;100364.44;;;10.16;65.49